sensor_id;sensor_type;location;lat;lon;timestamp;P1;durP1;ratioP1;P2;durP2;ratioP2
43696;SDS011;29301;47.620;19.560;2023-04-24T00:00:00;0.82;;;0.60;;
43696;SDS011;29301;47.620;19.560;2023-04-24T00:02:30;0.70;;;0.50;;
43696;SDS011;29301;47.620;19.560;2023-04-24T00:04:56;0.80;;;0.60;;
43696;SDS011;29301;47.620;19.560;2023-04-24T00:07:30;0.80;;;0.60;;
43696;SDS011;29301;47.620;19.560;2023-04-24T00:09:56;0.90;;;0.70;;
43696;SDS011;29301;47.620;19.560;2023-04-24T00:12:22;0.93;;;0.70;;
43696;SDS011;29301;47.620;19.560;2023-04-24T00:14:48;1.02;;;0.70;;
43696;SDS011;29301;47.620;19.560;2023-04-24T00:17:14;1.10;;;0.70;;
43696;SDS011;29301;47.620;19.560;2023-04-24T00:19:40;1.10;;;0.80;;
43696;SDS011;29301;47.620;19.560;2023-04-24T00:22:05;1.05;;;0.70;;
43696;SDS011;29301;47.620;19.560;2023-04-24T00:24:31;1.00;;;0.70;;
43696;SDS011;29301;47.620;19.560;2023-04-24T00:26:58;1.20;;;0.70;;
43696;SDS011;29301;47.620;19.560;2023-04-24T00:29:24;0.93;;;0.70;;
43696;SDS011;29301;47.620;19.560;2023-04-24T00:31:49;1.00;;;0.70;;
43696;SDS011;29301;47.620;19.560;2023-04-24T00:34:15;0.90;;;0.60;;
43696;SDS011;29301;47.620;19.560;2023-04-24T00:36:41;0.80;;;0.60;;
43696;SDS011;29301;47.620;19.560;2023-04-24T00:39:07;0.90;;;0.63;;
43696;SDS011;29301;47.620;19.560;2023-04-24T00:41:35;0.80;;;0.60;;
43696;SDS011;29301;47.620;19.560;2023-04-24T00:44:01;0.80;;;0.60;;
43696;SDS011;29301;47.620;19.560;2023-04-24T00:46:27;0.80;;;0.60;;
43696;SDS011;29301;47.620;19.560;2023-04-24T00:48:54;0.82;;;0.60;;
43696;SDS011;29301;47.620;19.560;2023-04-24T00:51:21;0.80;;;0.60;;
43696;SDS011;29301;47.620;19.560;2023-04-24T00:53:49;0.70;;;0.52;;
43696;SDS011;29301;47.620;19.560;2023-04-24T00:56:16;0.80;;;0.60;;
43696;SDS011;29301;47.620;19.560;2023-04-24T00:58:42;0.70;;;0.50;;
43696;SDS011;29301;47.620;19.560;2023-04-24T01:01:09;0.80;;;0.60;;
43696;SDS011;29301;47.620;19.560;2023-04-24T01:03:36;0.70;;;0.60;;
43696;SDS011;29301;47.620;19.560;2023-04-24T01:06:02;0.70;;;0.60;;
43696;SDS011;29301;47.620;19.560;2023-04-24T01:08:29;0.80;;;0.60;;
43696;SDS011;29301;47.620;19.560;2023-04-24T01:10:56;0.80;;;0.60;;
43696;SDS011;29301;47.620;19.560;2023-04-24T01:13:22;0.70;;;0.50;;
43696;SDS011;29301;47.620;19.560;2023-04-24T01:15:48;0.80;;;0.60;;
43696;SDS011;29301;47.620;19.560;2023-04-24T01:18:14;0.70;;;0.57;;
43696;SDS011;29301;47.620;19.560;2023-04-24T01:20:42;0.70;;;0.50;;
43696;SDS011;29301;47.620;19.560;2023-04-24T01:23:10;0.73;;;0.60;;
43696;SDS011;29301;47.620;19.560;2023-04-24T01:25:36;0.80;;;0.60;;
43696;SDS011;29301;47.620;19.560;2023-04-24T01:28:02;0.80;;;0.60;;
43696;SDS011;29301;47.620;19.560;2023-04-24T01:30:30;0.77;;;0.60;;
43696;SDS011;29301;47.620;19.560;2023-04-24T01:32:56;0.85;;;0.60;;
43696;SDS011;29301;47.620;19.560;2023-04-24T01:35:24;0.70;;;0.50;;
43696;SDS011;29301;47.620;19.560;2023-04-24T01:37:50;0.70;;;0.57;;
43696;SDS011;29301;47.620;19.560;2023-04-24T01:40:15;0.70;;;0.50;;
43696;SDS011;29301;47.620;19.560;2023-04-24T01:42:41;0.70;;;0.60;;
43696;SDS011;29301;47.620;19.560;2023-04-24T01:45:08;0.80;;;0.57;;
43696;SDS011;29301;47.620;19.560;2023-04-24T01:47:36;0.80;;;0.60;;
43696;SDS011;29301;47.620;19.560;2023-04-24T01:50:03;0.70;;;0.60;;
43696;SDS011;29301;47.620;19.560;2023-04-24T01:52:29;0.73;;;0.50;;
43696;SDS011;29301;47.620;19.560;2023-04-24T01:54:59;0.80;;;0.60;;
43696;SDS011;29301;47.620;19.560;2023-04-24T01:57:25;0.80;;;0.60;;
43696;SDS011;29301;47.620;19.560;2023-04-24T01:59:51;0.70;;;0.60;;
43696;SDS011;29301;47.620;19.560;2023-04-24T02:02:17;0.80;;;0.60;;
43696;SDS011;29301;47.620;19.560;2023-04-24T02:04:43;0.85;;;0.60;;
43696;SDS011;29301;47.620;19.560;2023-04-24T02:07:08;0.80;;;0.60;;
43696;SDS011;29301;47.620;19.560;2023-04-24T02:09:34;0.80;;;0.60;;
43696;SDS011;29301;47.620;19.560;2023-04-24T02:12:00;0.70;;;0.50;;
43696;SDS011;29301;47.620;19.560;2023-04-24T02:14:25;0.70;;;0.60;;
43696;SDS011;29301;47.620;19.560;2023-04-24T02:16:51;0.80;;;0.57;;
43696;SDS011;29301;47.620;19.560;2023-04-24T02:19:18;0.80;;;0.50;;
43696;SDS011;29301;47.620;19.560;2023-04-24T02:21:44;0.88;;;0.60;;
43696;SDS011;29301;47.620;19.560;2023-04-24T02:24:09;0.70;;;0.50;;
43696;SDS011;29301;47.620;19.560;2023-04-24T02:26:35;0.80;;;0.60;;
43696;SDS011;29301;47.620;19.560;2023-04-24T02:29:01;0.80;;;0.60;;
43696;SDS011;29301;47.620;19.560;2023-04-24T02:31:26;0.80;;;0.60;;
43696;SDS011;29301;47.620;19.560;2023-04-24T02:33:52;0.80;;;0.60;;
43696;SDS011;29301;47.620;19.560;2023-04-24T02:36:18;0.80;;;0.60;;
43696;SDS011;29301;47.620;19.560;2023-04-24T02:38:44;0.70;;;0.60;;
43696;SDS011;29301;47.620;19.560;2023-04-24T02:41:10;0.80;;;0.60;;
43696;SDS011;29301;47.620;19.560;2023-04-24T02:43:36;0.80;;;0.60;;
43696;SDS011;29301;47.620;19.560;2023-04-24T02:46:01;0.80;;;0.60;;
43696;SDS011;29301;47.620;19.560;2023-04-24T02:48:27;0.80;;;0.50;;
43696;SDS011;29301;47.620;19.560;2023-04-24T02:50:53;0.80;;;0.60;;
43696;SDS011;29301;47.620;19.560;2023-04-24T02:53:19;0.70;;;0.60;;
43696;SDS011;29301;47.620;19.560;2023-04-24T02:55:45;0.80;;;0.60;;
43696;SDS011;29301;47.620;19.560;2023-04-24T02:58:11;0.80;;;0.60;;
43696;SDS011;29301;47.620;19.560;2023-04-24T03:00:38;0.70;;;0.60;;
43696;SDS011;29301;47.620;19.560;2023-04-24T03:03:04;0.70;;;0.50;;
43696;SDS011;29301;47.620;19.560;2023-04-24T03:05:30;0.80;;;0.60;;
43696;SDS011;29301;47.620;19.560;2023-04-24T03:07:56;0.70;;;0.60;;
43696;SDS011;29301;47.620;19.560;2023-04-24T03:10:22;0.80;;;0.60;;
43696;SDS011;29301;47.620;19.560;2023-04-24T03:12:48;0.70;;;0.50;;
43696;SDS011;29301;47.620;19.560;2023-04-24T03:15:14;0.70;;;0.50;;
43696;SDS011;29301;47.620;19.560;2023-04-24T03:17:39;0.70;;;0.50;;
43696;SDS011;29301;47.620;19.560;2023-04-24T03:20:05;0.70;;;0.50;;
43696;SDS011;29301;47.620;19.560;2023-04-24T03:22:33;0.70;;;0.50;;
43696;SDS011;29301;47.620;19.560;2023-04-24T03:24:58;0.70;;;0.50;;
43696;SDS011;29301;47.620;19.560;2023-04-24T03:27:24;0.80;;;0.57;;
43696;SDS011;29301;47.620;19.560;2023-04-24T03:29:50;0.70;;;0.50;;
43696;SDS011;29301;47.620;19.560;2023-04-24T03:32:21;0.80;;;0.60;;
43696;SDS011;29301;47.620;19.560;2023-04-24T03:34:47;0.80;;;0.60;;
43696;SDS011;29301;47.620;19.560;2023-04-24T03:37:14;0.82;;;0.60;;
43696;SDS011;29301;47.620;19.560;2023-04-24T03:39:40;0.80;;;0.60;;
43696;SDS011;29301;47.620;19.560;2023-04-24T03:42:05;0.80;;;0.60;;
43696;SDS011;29301;47.620;19.560;2023-04-24T03:44:31;0.80;;;0.60;;
43696;SDS011;29301;47.620;19.560;2023-04-24T03:46:57;1.00;;;0.70;;
43696;SDS011;29301;47.620;19.560;2023-04-24T03:49:23;1.10;;;0.80;;
43696;SDS011;29301;47.620;19.560;2023-04-24T03:51:49;1.15;;;0.80;;
43696;SDS011;29301;47.620;19.560;2023-04-24T03:54:14;1.20;;;0.80;;
43696;SDS011;29301;47.620;19.560;2023-04-24T03:56:40;0.90;;;0.70;;
43696;SDS011;29301;47.620;19.560;2023-04-24T03:59:06;0.88;;;0.60;;
43696;SDS011;29301;47.620;19.560;2023-04-24T04:01:31;0.82;;;0.60;;
43696;SDS011;29301;47.620;19.560;2023-04-24T04:03:57;1.08;;;0.70;;
43696;SDS011;29301;47.620;19.560;2023-04-24T04:06:23;1.10;;;0.70;;
43696;SDS011;29301;47.620;19.560;2023-04-24T04:08:48;0.80;;;0.60;;
43696;SDS011;29301;47.620;19.560;2023-04-24T04:11:14;0.93;;;0.70;;
43696;SDS011;29301;47.620;19.560;2023-04-24T04:13:40;0.90;;;0.60;;
43696;SDS011;29301;47.620;19.560;2023-04-24T04:16:05;1.00;;;0.70;;
43696;SDS011;29301;47.620;19.560;2023-04-24T04:18:31;0.90;;;0.60;;
43696;SDS011;29301;47.620;19.560;2023-04-24T04:20:57;0.80;;;0.60;;
43696;SDS011;29301;47.620;19.560;2023-04-24T04:23:22;0.70;;;0.60;;
43696;SDS011;29301;47.620;19.560;2023-04-24T04:25:48;0.80;;;0.60;;
43696;SDS011;29301;47.620;19.560;2023-04-24T04:28:15;0.70;;;0.50;;
43696;SDS011;29301;47.620;19.560;2023-04-24T04:30:40;0.80;;;0.60;;
43696;SDS011;29301;47.620;19.560;2023-04-24T04:33:06;0.70;;;0.60;;
43696;SDS011;29301;47.620;19.560;2023-04-24T04:35:33;0.80;;;0.60;;
43696;SDS011;29301;47.620;19.560;2023-04-24T04:37:59;0.90;;;0.63;;
43696;SDS011;29301;47.620;19.560;2023-04-24T04:40:25;0.80;;;0.60;;
43696;SDS011;29301;47.620;19.560;2023-04-24T04:42:52;0.80;;;0.60;;
43696;SDS011;29301;47.620;19.560;2023-04-24T04:45:18;0.80;;;0.60;;
43696;SDS011;29301;47.620;19.560;2023-04-24T04:47:45;0.88;;;0.60;;
43696;SDS011;29301;47.620;19.560;2023-04-24T04:50:11;0.80;;;0.60;;
43696;SDS011;29301;47.620;19.560;2023-04-24T04:52:37;1.00;;;0.68;;
43696;SDS011;29301;47.620;19.560;2023-04-24T04:55:02;0.80;;;0.60;;
43696;SDS011;29301;47.620;19.560;2023-04-24T04:57:28;0.80;;;0.60;;
43696;SDS011;29301;47.620;19.560;2023-04-24T04:59:55;0.90;;;0.60;;
43696;SDS011;29301;47.620;19.560;2023-04-24T05:02:20;0.90;;;0.60;;
43696;SDS011;29301;47.620;19.560;2023-04-24T05:04:46;0.80;;;0.60;;
43696;SDS011;29301;47.620;19.560;2023-04-24T05:07:12;0.90;;;0.70;;
43696;SDS011;29301;47.620;19.560;2023-04-24T05:09:38;1.00;;;0.70;;
43696;SDS011;29301;47.620;19.560;2023-04-24T05:12:03;0.80;;;0.60;;
43696;SDS011;29301;47.620;19.560;2023-04-24T05:14:29;0.80;;;0.60;;
43696;SDS011;29301;47.620;19.560;2023-04-24T05:16:55;1.00;;;0.70;;
43696;SDS011;29301;47.620;19.560;2023-04-24T05:19:20;0.90;;;0.60;;
43696;SDS011;29301;47.620;19.560;2023-04-24T05:21:46;0.70;;;0.60;;
43696;SDS011;29301;47.620;19.560;2023-04-24T05:24:12;0.90;;;0.63;;
43696;SDS011;29301;47.620;19.560;2023-04-24T05:26:37;0.90;;;0.70;;
43696;SDS011;29301;47.620;19.560;2023-04-24T05:29:03;0.90;;;0.60;;
43696;SDS011;29301;47.620;19.560;2023-04-24T05:31:29;0.90;;;0.60;;
43696;SDS011;29301;47.620;19.560;2023-04-24T05:33:55;0.80;;;0.60;;
43696;SDS011;29301;47.620;19.560;2023-04-24T05:36:20;0.80;;;0.60;;
43696;SDS011;29301;47.620;19.560;2023-04-24T05:38:46;0.90;;;0.60;;
43696;SDS011;29301;47.620;19.560;2023-04-24T05:41:11;0.90;;;0.65;;
43696;SDS011;29301;47.620;19.560;2023-04-24T05:43:37;0.80;;;0.55;;
43696;SDS011;29301;47.620;19.560;2023-04-24T05:46:03;0.80;;;0.60;;
43696;SDS011;29301;47.620;19.560;2023-04-24T05:48:28;0.80;;;0.60;;
43696;SDS011;29301;47.620;19.560;2023-04-24T05:50:55;0.80;;;0.60;;
43696;SDS011;29301;47.620;19.560;2023-04-24T05:53:20;0.80;;;0.50;;
43696;SDS011;29301;47.620;19.560;2023-04-24T05:55:47;0.80;;;0.60;;
43696;SDS011;29301;47.620;19.560;2023-04-24T05:58:12;0.80;;;0.60;;
43696;SDS011;29301;47.620;19.560;2023-04-24T06:00:39;0.70;;;0.60;;
43696;SDS011;29301;47.620;19.560;2023-04-24T06:03:07;0.80;;;0.60;;
43696;SDS011;29301;47.620;19.560;2023-04-24T06:05:33;0.80;;;0.60;;
43696;SDS011;29301;47.620;19.560;2023-04-24T06:07:59;0.85;;;0.60;;
43696;SDS011;29301;47.620;19.560;2023-04-24T06:10:25;0.80;;;0.60;;
43696;SDS011;29301;47.620;19.560;2023-04-24T06:12:51;0.80;;;0.60;;
43696;SDS011;29301;47.620;19.560;2023-04-24T06:15:17;0.80;;;0.60;;
43696;SDS011;29301;47.620;19.560;2023-04-24T06:17:42;0.80;;;0.60;;
43696;SDS011;29301;47.620;19.560;2023-04-24T06:20:08;0.70;;;0.50;;
43696;SDS011;29301;47.620;19.560;2023-04-24T06:22:35;0.70;;;0.50;;
43696;SDS011;29301;47.620;19.560;2023-04-24T06:25:01;0.70;;;0.50;;
43696;SDS011;29301;47.620;19.560;2023-04-24T06:27:27;0.70;;;0.50;;
43696;SDS011;29301;47.620;19.560;2023-04-24T06:29:53;0.70;;;0.50;;
43696;SDS011;29301;47.620;19.560;2023-04-24T06:32:23;0.70;;;0.50;;
43696;SDS011;29301;47.620;19.560;2023-04-24T06:34:50;0.80;;;0.50;;
43696;SDS011;29301;47.620;19.560;2023-04-24T06:37:18;0.70;;;0.50;;
43696;SDS011;29301;47.620;19.560;2023-04-24T06:39:44;0.80;;;0.50;;
43696;SDS011;29301;47.620;19.560;2023-04-24T06:42:09;0.90;;;0.60;;
43696;SDS011;29301;47.620;19.560;2023-04-24T06:44:35;0.70;;;0.50;;
43696;SDS011;29301;47.620;19.560;2023-04-24T06:47:05;0.80;;;0.60;;
43696;SDS011;29301;47.620;19.560;2023-04-24T06:49:33;0.70;;;0.50;;
43696;SDS011;29301;47.620;19.560;2023-04-24T06:51:59;0.70;;;0.50;;
43696;SDS011;29301;47.620;19.560;2023-04-24T06:54:25;0.70;;;0.50;;
43696;SDS011;29301;47.620;19.560;2023-04-24T06:56:51;0.70;;;0.50;;
43696;SDS011;29301;47.620;19.560;2023-04-24T06:59:17;0.80;;;0.60;;
43696;SDS011;29301;47.620;19.560;2023-04-24T07:01:43;0.80;;;0.50;;
43696;SDS011;29301;47.620;19.560;2023-04-24T07:04:08;0.80;;;0.50;;
43696;SDS011;29301;47.620;19.560;2023-04-24T07:06:34;0.80;;;0.57;;
43696;SDS011;29301;47.620;19.560;2023-04-24T07:09:01;0.80;;;0.60;;
43696;SDS011;29301;47.620;19.560;2023-04-24T07:11:26;0.80;;;0.60;;
43696;SDS011;29301;47.620;19.560;2023-04-24T07:13:54;0.70;;;0.52;;
43696;SDS011;29301;47.620;19.560;2023-04-24T07:16:20;0.70;;;0.50;;
43696;SDS011;29301;47.620;19.560;2023-04-24T07:18:46;0.70;;;0.60;;
43696;SDS011;29301;47.620;19.560;2023-04-24T07:21:12;0.70;;;0.60;;
43696;SDS011;29301;47.620;19.560;2023-04-24T07:23:37;0.80;;;0.60;;
43696;SDS011;29301;47.620;19.560;2023-04-24T07:26:03;0.70;;;0.52;;
43696;SDS011;29301;47.620;19.560;2023-04-24T07:28:30;0.70;;;0.50;;
43696;SDS011;29301;47.620;19.560;2023-04-24T07:30:56;0.70;;;0.50;;
43696;SDS011;29301;47.620;19.560;2023-04-24T07:33:23;0.80;;;0.60;;
43696;SDS011;29301;47.620;19.560;2023-04-24T07:35:49;0.70;;;0.50;;
43696;SDS011;29301;47.620;19.560;2023-04-24T07:38:15;0.70;;;0.50;;
43696;SDS011;29301;47.620;19.560;2023-04-24T07:40:41;0.80;;;0.60;;
43696;SDS011;29301;47.620;19.560;2023-04-24T07:43:06;0.80;;;0.50;;
43696;SDS011;29301;47.620;19.560;2023-04-24T07:45:32;0.70;;;0.50;;
43696;SDS011;29301;47.620;19.560;2023-04-24T07:48:02;0.80;;;0.60;;
43696;SDS011;29301;47.620;19.560;2023-04-24T07:50:27;0.70;;;0.50;;
43696;SDS011;29301;47.620;19.560;2023-04-24T07:52:53;0.70;;;0.50;;
43696;SDS011;29301;47.620;19.560;2023-04-24T07:55:19;0.70;;;0.50;;
43696;SDS011;29301;47.620;19.560;2023-04-24T07:57:44;0.80;;;0.50;;
43696;SDS011;29301;47.620;19.560;2023-04-24T08:00:10;0.70;;;0.50;;
43696;SDS011;29301;47.620;19.560;2023-04-24T08:02:36;0.70;;;0.50;;
43696;SDS011;29301;47.620;19.560;2023-04-24T08:05:02;0.80;;;0.50;;
43696;SDS011;29301;47.620;19.560;2023-04-24T08:07:28;0.70;;;0.50;;
43696;SDS011;29301;47.620;19.560;2023-04-24T08:09:54;0.80;;;0.60;;
43696;SDS011;29301;47.620;19.560;2023-04-24T08:12:20;0.70;;;0.50;;
43696;SDS011;29301;47.620;19.560;2023-04-24T08:14:45;0.80;;;0.50;;
43696;SDS011;29301;47.620;19.560;2023-04-24T08:17:11;0.70;;;0.50;;
43696;SDS011;29301;47.620;19.560;2023-04-24T08:19:37;0.70;;;0.50;;
43696;SDS011;29301;47.620;19.560;2023-04-24T08:22:07;0.80;;;0.60;;
43696;SDS011;29301;47.620;19.560;2023-04-24T08:24:32;0.70;;;0.50;;
43696;SDS011;29301;47.620;19.560;2023-04-24T08:26:58;0.70;;;0.50;;
43696;SDS011;29301;47.620;19.560;2023-04-24T08:29:24;0.70;;;0.50;;
43696;SDS011;29301;47.620;19.560;2023-04-24T08:31:50;0.80;;;0.60;;
43696;SDS011;29301;47.620;19.560;2023-04-24T08:34:15;0.70;;;0.50;;
43696;SDS011;29301;47.620;19.560;2023-04-24T08:36:41;0.70;;;0.50;;
43696;SDS011;29301;47.620;19.560;2023-04-24T08:39:07;0.80;;;0.50;;
43696;SDS011;29301;47.620;19.560;2023-04-24T08:41:34;0.70;;;0.50;;
43696;SDS011;29301;47.620;19.560;2023-04-24T08:44:01;0.70;;;0.50;;
43696;SDS011;29301;47.620;19.560;2023-04-24T08:46:27;0.70;;;0.50;;
43696;SDS011;29301;47.620;19.560;2023-04-24T08:48:55;0.70;;;0.50;;
43696;SDS011;29301;47.620;19.560;2023-04-24T08:51:21;0.70;;;0.50;;
43696;SDS011;29301;47.620;19.560;2023-04-24T08:53:51;0.77;;;0.50;;
43696;SDS011;29301;47.620;19.560;2023-04-24T08:56:20;0.70;;;0.50;;
43696;SDS011;29301;47.620;19.560;2023-04-24T08:58:48;0.70;;;0.50;;
43696;SDS011;29301;47.620;19.560;2023-04-24T09:01:16;0.80;;;0.50;;
43696;SDS011;29301;47.620;19.560;2023-04-24T09:03:43;0.70;;;0.40;;
43696;SDS011;29301;47.620;19.560;2023-04-24T09:06:10;0.70;;;0.50;;
43696;SDS011;29301;47.620;19.560;2023-04-24T09:08:36;0.70;;;0.50;;
43696;SDS011;29301;47.620;19.560;2023-04-24T09:11:03;0.70;;;0.45;;
43696;SDS011;29301;47.620;19.560;2023-04-24T09:13:30;0.70;;;0.47;;
43696;SDS011;29301;47.620;19.560;2023-04-24T09:15:56;0.70;;;0.40;;
43696;SDS011;29301;47.620;19.560;2023-04-24T09:18:22;0.70;;;0.40;;
43696;SDS011;29301;47.620;19.560;2023-04-24T09:21:01;0.70;;;0.50;;
43696;SDS011;29301;47.620;19.560;2023-04-24T09:23:34;0.63;;;0.40;;
43696;SDS011;29301;47.620;19.560;2023-04-24T09:26:00;0.70;;;0.40;;
43696;SDS011;29301;47.620;19.560;2023-04-24T09:28:30;0.70;;;0.40;;
43696;SDS011;29301;47.620;19.560;2023-04-24T09:31:08;0.70;;;0.40;;
43696;SDS011;29301;47.620;19.560;2023-04-24T09:33:39;0.70;;;0.40;;
43696;SDS011;29301;47.620;19.560;2023-04-24T09:36:04;0.60;;;0.40;;
43696;SDS011;29301;47.620;19.560;2023-04-24T09:38:34;0.70;;;0.47;;
43696;SDS011;29301;47.620;19.560;2023-04-24T09:41:05;0.70;;;0.50;;
43696;SDS011;29301;47.620;19.560;2023-04-24T09:43:32;0.70;;;0.50;;
43696;SDS011;29301;47.620;19.560;2023-04-24T09:45:58;0.70;;;0.45;;
43696;SDS011;29301;47.620;19.560;2023-04-24T09:48:35;0.70;;;0.50;;
43696;SDS011;29301;47.620;19.560;2023-04-24T09:51:03;0.65;;;0.40;;
43696;SDS011;29301;47.620;19.560;2023-04-24T09:53:31;0.70;;;0.40;;
43696;SDS011;29301;47.620;19.560;2023-04-24T09:56:10;0.60;;;0.40;;
43696;SDS011;29301;47.620;19.560;2023-04-24T09:58:37;0.50;;;0.40;;
43696;SDS011;29301;47.620;19.560;2023-04-24T10:01:03;0.45;;;0.40;;
43696;SDS011;29301;47.620;19.560;2023-04-24T10:03:29;0.50;;;0.40;;
43696;SDS011;29301;47.620;19.560;2023-04-24T10:05:59;0.60;;;0.40;;
43696;SDS011;29301;47.620;19.560;2023-04-24T10:08:26;0.50;;;0.40;;
43696;SDS011;29301;47.620;19.560;2023-04-24T10:10:57;0.50;;;0.40;;
43696;SDS011;29301;47.620;19.560;2023-04-24T10:13:24;0.50;;;0.40;;
43696;SDS011;29301;47.620;19.560;2023-04-24T10:15:50;0.40;;;0.35;;
43696;SDS011;29301;47.620;19.560;2023-04-24T10:18:16;0.47;;;0.40;;
43696;SDS011;29301;47.620;19.560;2023-04-24T10:20:45;0.50;;;0.40;;
43696;SDS011;29301;47.620;19.560;2023-04-24T10:23:13;0.50;;;0.40;;
43696;SDS011;29301;47.620;19.560;2023-04-24T10:25:39;0.50;;;0.40;;
43696;SDS011;29301;47.620;19.560;2023-04-24T10:28:05;0.50;;;0.40;;
43696;SDS011;29301;47.620;19.560;2023-04-24T10:30:34;0.40;;;0.30;;
43696;SDS011;29301;47.620;19.560;2023-04-24T10:33:03;0.47;;;0.40;;
43696;SDS011;29301;47.620;19.560;2023-04-24T10:35:31;0.40;;;0.32;;
43696;SDS011;29301;47.620;19.560;2023-04-24T10:38:13;0.45;;;0.40;;
43696;SDS011;29301;47.620;19.560;2023-04-24T10:40:42;0.40;;;0.30;;
43696;SDS011;29301;47.620;19.560;2023-04-24T10:43:09;0.40;;;0.40;;
43696;SDS011;29301;47.620;19.560;2023-04-24T10:45:36;0.40;;;0.30;;
43696;SDS011;29301;47.620;19.560;2023-04-24T10:48:09;0.40;;;0.30;;
43696;SDS011;29301;47.620;19.560;2023-04-24T10:50:45;0.40;;;0.40;;
43696;SDS011;29301;47.620;19.560;2023-04-24T10:53:22;0.40;;;0.30;;
43696;SDS011;29301;47.620;19.560;2023-04-24T10:56:15;0.40;;;0.40;;
43696;SDS011;29301;47.620;19.560;2023-04-24T10:58:42;0.30;;;0.30;;
43696;SDS011;29301;47.620;19.560;2023-04-24T11:01:29;0.40;;;0.30;;
43696;SDS011;29301;47.620;19.560;2023-04-24T11:04:00;0.40;;;0.30;;
43696;SDS011;29301;47.620;19.560;2023-04-24T11:06:36;0.45;;;0.40;;
43696;SDS011;29301;47.620;19.560;2023-04-24T11:09:06;0.40;;;0.35;;
43696;SDS011;29301;47.620;19.560;2023-04-24T11:11:38;0.40;;;0.30;;
43696;SDS011;29301;47.620;19.560;2023-04-24T11:14:09;0.40;;;0.30;;
43696;SDS011;29301;47.620;19.560;2023-04-24T11:16:42;0.40;;;0.30;;
43696;SDS011;29301;47.620;19.560;2023-04-24T11:22:03;0.40;;;0.30;;
43696;SDS011;29301;47.620;19.560;2023-04-24T11:30:00;0.40;;;0.30;;
43696;SDS011;29301;47.620;19.560;2023-04-24T11:35:02;0.40;;;0.30;;
43696;SDS011;29301;47.620;19.560;2023-04-24T11:37:37;0.40;;;0.40;;
43696;SDS011;29301;47.620;19.560;2023-04-24T11:40:04;0.40;;;0.30;;
43696;SDS011;29301;47.620;19.560;2023-04-24T11:42:35;0.40;;;0.30;;
43696;SDS011;29301;47.620;19.560;2023-04-24T11:45:09;0.40;;;0.30;;
43696;SDS011;29301;47.620;19.560;2023-04-24T11:47:39;0.40;;;0.30;;
43696;SDS011;29301;47.620;19.560;2023-04-24T11:50:07;0.40;;;0.30;;
43696;SDS011;29301;47.620;19.560;2023-04-24T11:52:36;0.40;;;0.40;;
43696;SDS011;29301;47.620;19.560;2023-04-24T11:55:03;0.40;;;0.40;;
43696;SDS011;29301;47.620;19.560;2023-04-24T11:57:31;0.40;;;0.30;;
43696;SDS011;29301;47.620;19.560;2023-04-24T12:00:01;0.40;;;0.30;;
43696;SDS011;29301;47.620;19.560;2023-04-24T12:02:28;0.50;;;0.40;;
43696;SDS011;29301;47.620;19.560;2023-04-24T12:04:54;0.45;;;0.40;;
43696;SDS011;29301;47.620;19.560;2023-04-24T12:07:20;0.40;;;0.40;;
43696;SDS011;29301;47.620;19.560;2023-04-24T12:09:47;0.50;;;0.40;;
43696;SDS011;29301;47.620;19.560;2023-04-24T12:12:23;0.50;;;0.40;;
43696;SDS011;29301;47.620;19.560;2023-04-24T12:14:54;0.45;;;0.40;;
43696;SDS011;29301;47.620;19.560;2023-04-24T12:17:25;0.40;;;0.40;;
43696;SDS011;29301;47.620;19.560;2023-04-24T12:19:56;0.50;;;0.40;;
43696;SDS011;29301;47.620;19.560;2023-04-24T12:22:23;0.50;;;0.40;;
43696;SDS011;29301;47.620;19.560;2023-04-24T12:24:55;0.60;;;0.40;;
43696;SDS011;29301;47.620;19.560;2023-04-24T12:27:29;0.40;;;0.40;;
43696;SDS011;29301;47.620;19.560;2023-04-24T12:29:57;0.40;;;0.30;;
43696;SDS011;29301;47.620;19.560;2023-04-24T12:32:24;0.40;;;0.30;;
43696;SDS011;29301;47.620;19.560;2023-04-24T12:34:50;0.40;;;0.40;;
43696;SDS011;29301;47.620;19.560;2023-04-24T12:37:17;0.40;;;0.30;;
43696;SDS011;29301;47.620;19.560;2023-04-24T12:42:43;0.40;;;0.30;;
43696;SDS011;29301;47.620;19.560;2023-04-24T12:45:10;0.40;;;0.30;;
43696;SDS011;29301;47.620;19.560;2023-04-24T12:47:40;0.40;;;0.30;;
43696;SDS011;29301;47.620;19.560;2023-04-24T12:50:10;0.40;;;0.30;;
43696;SDS011;29301;47.620;19.560;2023-04-24T12:52:37;0.40;;;0.30;;
43696;SDS011;29301;47.620;19.560;2023-04-24T12:55:04;0.40;;;0.30;;
43696;SDS011;29301;47.620;19.560;2023-04-24T12:57:32;0.40;;;0.30;;
43696;SDS011;29301;47.620;19.560;2023-04-24T12:59:59;0.40;;;0.30;;
43696;SDS011;29301;47.620;19.560;2023-04-24T13:02:26;0.50;;;0.40;;
43696;SDS011;29301;47.620;19.560;2023-04-24T13:04:54;0.50;;;0.40;;
43696;SDS011;29301;47.620;19.560;2023-04-24T14:18:53;0.45;;;0.40;;
43696;SDS011;29301;47.620;19.560;2023-04-24T14:21:19;0.50;;;0.40;;
43696;SDS011;29301;47.620;19.560;2023-04-24T14:23:44;0.40;;;0.35;;
43696;SDS011;29301;47.620;19.560;2023-04-24T14:26:10;0.40;;;0.35;;
43696;SDS011;29301;47.620;19.560;2023-04-24T14:28:36;0.55;;;0.40;;
43696;SDS011;29301;47.620;19.560;2023-04-24T14:31:01;0.40;;;0.30;;
43696;SDS011;29301;47.620;19.560;2023-04-24T14:33:27;0.50;;;0.40;;
43696;SDS011;29301;47.620;19.560;2023-04-24T14:35:53;0.60;;;0.40;;
43696;SDS011;29301;47.620;19.560;2023-04-24T14:38:18;0.45;;;0.40;;
43696;SDS011;29301;47.620;19.560;2023-04-24T14:40:44;0.40;;;0.30;;
43696;SDS011;29301;47.620;19.560;2023-04-24T14:43:10;0.50;;;0.40;;
43696;SDS011;29301;47.620;19.560;2023-04-24T14:45:36;0.60;;;0.40;;
43696;SDS011;29301;47.620;19.560;2023-04-24T14:48:03;0.45;;;0.40;;
43696;SDS011;29301;47.620;19.560;2023-04-24T14:50:29;0.60;;;0.40;;
43696;SDS011;29301;47.620;19.560;2023-04-24T14:52:55;0.50;;;0.40;;
43696;SDS011;29301;47.620;19.560;2023-04-24T14:55:24;0.52;;;0.40;;
43696;SDS011;29301;47.620;19.560;2023-04-24T14:57:51;0.50;;;0.40;;
43696;SDS011;29301;47.620;19.560;2023-04-24T15:00:17;0.60;;;0.40;;
43696;SDS011;29301;47.620;19.560;2023-04-24T15:02:45;0.50;;;0.40;;
43696;SDS011;29301;47.620;19.560;2023-04-24T15:05:10;0.60;;;0.40;;
43696;SDS011;29301;47.620;19.560;2023-04-24T15:07:37;0.60;;;0.40;;
43696;SDS011;29301;47.620;19.560;2023-04-24T15:10:03;0.60;;;0.40;;
43696;SDS011;29301;47.620;19.560;2023-04-24T15:12:30;0.60;;;0.40;;
43696;SDS011;29301;47.620;19.560;2023-04-24T15:14:57;0.68;;;0.45;;
43696;SDS011;29301;47.620;19.560;2023-04-24T15:17:23;0.60;;;0.40;;
43696;SDS011;29301;47.620;19.560;2023-04-24T15:19:49;0.60;;;0.40;;
43696;SDS011;29301;47.620;19.560;2023-04-24T15:22:15;0.60;;;0.40;;
43696;SDS011;29301;47.620;19.560;2023-04-24T15:24:41;0.50;;;0.40;;
43696;SDS011;29301;47.620;19.560;2023-04-24T15:27:08;0.60;;;0.40;;
43696;SDS011;29301;47.620;19.560;2023-04-24T15:29:35;0.60;;;0.40;;
43696;SDS011;29301;47.620;19.560;2023-04-24T15:32:01;0.60;;;0.40;;
43696;SDS011;29301;47.620;19.560;2023-04-24T15:34:27;0.60;;;0.40;;
43696;SDS011;29301;47.620;19.560;2023-04-24T15:36:52;0.55;;;0.40;;
43696;SDS011;29301;47.620;19.560;2023-04-24T15:39:21;0.60;;;0.40;;
43696;SDS011;29301;47.620;19.560;2023-04-24T15:41:48;0.60;;;0.40;;
43696;SDS011;29301;47.620;19.560;2023-04-24T15:44:15;0.60;;;0.40;;
43696;SDS011;29301;47.620;19.560;2023-04-24T15:46:40;0.50;;;0.40;;
43696;SDS011;29301;47.620;19.560;2023-04-24T15:49:06;0.60;;;0.40;;
43696;SDS011;29301;47.620;19.560;2023-04-24T15:51:32;0.70;;;0.40;;
43696;SDS011;29301;47.620;19.560;2023-04-24T15:53:57;0.60;;;0.40;;
43696;SDS011;29301;47.620;19.560;2023-04-24T15:56:23;0.70;;;0.40;;